KVDFKMTH

Guest
Details From KVDF - Vandenberg
To KMTH - The Florida Keys Marathon
Flight Number -
Tags generated
Created
Modified
Stats Distance 209 nm / 388 km
Max Altitude 21,700 ft / 6,614 m
Waypoints 3
Social Downloads 1
Likes 0
Share VATSIM

Download

Looking for another format? Having issues loading an existing format? Contact us
Advertisement - Login to hide

Notes

Basic altitude profile: - Ascent Rate: 2500ft/min - Ascent Speed: 250kts - Cruise Altitude: 35000ft - Cruise Speed: 420kts - Descent Rate: 1500ft/min - Descent Speed: 250kts Options: - Use NATs: yes - Use PACOTS: yes - Use low airways: yes - Use high airways: yes

Route

KVDF CORFU KMTH

ID Type Via Altitude Latitude Longitude Leg Dist Tot Dist Heading (true) Name
O KVDF APT - 0 ft / 0 m 28.01313˚ -82.34603˚ - 0 nm - Vandenberg
CORFU FIX - 21,700 ft / 6,614 m 26.40496˚ -81.65236˚ 103 nm 103 nm 159° / 159° -
O KMTH APT - 0 ft / 0 m 24.72618˚ -81.05137˚ 105 nm 209 nm 162° / 162° The Florida Keys Marathon

Altitude Profile

Advertisement - Login to hide

Weather


0- 5 10 15 20 25 30 35+ Temperature / ° C

Clouds and Precipitation
Forecast for 2017-12-16 18:00 UTC. Updated 2 hours ago

Ground ~20,000 ft ~40,000 ft Winds

KVDF

Details ICAO KVDF
Name Vandenberg
Region United States
Timezone America/New_York (UTC-5.0)
Stats Elevation 22 ft / 7 m (AMSL)
Location 28.013126° -82.346029°
Runways 2
Magnetic Variation 5.681° W

METAR

KVDF 161455Z AUTO 07007KT 10SM CLR 18/12 A3027 RMK AO2

Decode

TAF

Not found

Departure Runways

ID Width Length Bearing (true) Bearing (mag) Surface Threshold Offset Overrun Length
05 100 ft / 30 m 5,006 ft / 1,526 m 42.26° 47.94° Asphalt 400 ft / 122 m 0 ft / 0 m
18 75 ft / 23 m 3,271 ft / 997 m 180.19° 185.87° Asphalt 0 ft / 0 m 0 ft / 0 m
23 100 ft / 30 m 5,006 ft / 1,526 m 222.26° 227.94° Asphalt 800 ft / 244 m 0 ft / 0 m
36 75 ft / 23 m 3,271 ft / 997 m 0.19° 5.87° Asphalt 0 ft / 0 m 0 ft / 0 m

KMTH

Details ICAO KMTH (MTH)
Name The Florida Keys Marathon
Region United States
Timezone America/New_York (UTC-5.0)
Stats Elevation 5 ft / 2 m (AMSL)
Location 24.726183° -81.051368°
Runways 1
Magnetic Variation 6.010° W

METAR

KMTH 161453Z AUTO 04010KT 10SM CLR 22/16 A3020 RMK AO2 SLP227 T02170161 51018

Decode

TAF

TAF KMTH 161120Z 1612/1712 06007KT P6SM FEW250 FM162100 07009KT P6SM FEW028 SCT250 FM170000 07010KT P6SM SCT028 SCT060 BKN250 FM170900 08010KT P6SM SCT028 BKN060 OVC250

Decode

Destination Runways

ID Width Length Bearing (true) Bearing (mag) Surface Threshold Offset Overrun Length
07 98 ft / 30 m 5,006 ft / 1,526 m 67.17° 73.18° Asphalt 0 ft / 0 m 410 ft / 125 m
25 98 ft / 30 m 5,006 ft / 1,526 m 247.18° 253.19° Asphalt 0 ft / 0 m 410 ft / 125 m